Time;durP1;ratioP1;P1;durP2;ratioP2;P2;SDS_P1;SDS_P2;PMS_P1;PMS_P2;Temp;Humidity;BMP_temperature;BMP_pressure;BME280_temperature;BME280_humidity;BME280_pressure;Samples;Min_cycle;Max_cycle;Signal;HPM_P1;HPM_P2
2022/07/28 00:00:05;;;;;;;4.1;8.6;;;;;;;17.4;100;98720;;;;
2022/07/28 00:11:05;;;;;;;4.1;8.6;;;;;;;17.1;100;98710;;;;
2022/07/28 00:21:05;;;;;;;2.9;5.7;;;;;;;17;100;98710;;;;
2022/07/28 00:32:05;;;;;;;2.9;5.7;;;;;;;17;100;98730;;;;
2022/07/28 00:43:05;;;;;;;2.9;5.7;;;;;;;17.1;100;98740;;;;
2022/07/28 00:53:05;;;;;;;2.5;6.7;;;;;;;17.3;100;98740;;;;
2022/07/28 01:03:05;;;;;;;2.5;6.7;;;;;;;17.2;100;98730;;;;
2022/07/28 01:13:05;;;;;;;2.5;6.7;;;;;;;17;100;98740;;;;
2022/07/28 01:24:04;;;;;;;2.1;6.1;;;;;;;16.9;100;98750;;;;
2022/07/28 01:34:04;;;;;;;2.1;6.1;;;;;;;17;100;98750;;;;
2022/07/28 01:44:05;;;;;;;2.1;6.1;;;;;;;16.9;100;98740;;;;
2022/07/28 01:55:04;;;;;;;1.6;4.8;;;;;;;16.8;100;98730;;;;
2022/07/28 02:06:04;;;;;;;1.6;4.8;;;;;;;16.8;100;98750;;;;
2022/07/28 02:16:04;;;;;;;1.6;4.8;;;;;;;16.9;100;98750;;;;
2022/07/28 02:26:04;;;;;;;1.3;3.5;;;;;;;17;100;98750;;;;
2022/07/28 02:37:05;;;;;;;1.3;3.5;;;;;;;17;100;98750;;;;
2022/07/28 02:47:04;;;;;;;1.3;3.5;;;;;;;16.9;100;98760;;;;
2022/07/28 02:58:06;;;;;;;1.9;3.9;;;;;;;17;100;98770;;;;
2022/07/28 03:08:04;;;;;;;1.9;3.9;;;;;;;16.9;100;98780;;;;
2022/07/28 03:18:04;;;;;;;1.9;3.9;;;;;;;16.8;100;98800;;;;
2022/07/28 03:29:04;;;;;;;1.3;4.7;;;;;;;16.8;100;98800;;;;
2022/07/28 03:40:05;;;;;;;1.3;4.7;;;;;;;16.8;100;98800;;;;
2022/07/28 03:50:04;;;;;;;1.4;4.7;;;;;;;16.8;100;98810;;;;
2022/07/28 04:01:04;;;;;;;1.4;4.7;;;;;;;16.7;100;98820;;;;
2022/07/28 04:11:04;;;;;;;1.4;4.7;;;;;;;17.1;100;98820;;;;
2022/07/28 04:21:04;;;;;;;2;5.2;;;;;;;17.2;100;98820;;;;
2022/07/28 04:31:04;;;;;;;2;5.2;;;;;;;17.4;100;98830;;;;
2022/07/28 04:41:05;;;;;;;2;5.2;;;;;;;17.7;100;98830;;;;
2022/07/28 04:51:04;;;;;;;1.6;4.2;;;;;;;18.1;100;98830;;;;
2022/07/28 05:01:04;;;;;;;1.6;4.2;;;;;;;18.1;100;98840;;;;
2022/07/28 05:12:05;;;;;;;1.6;4.2;;;;;;;18.4;100;98850;;;;
2022/07/28 05:23:04;;;;;;;2.6;8.3;;;;;;;18.7;100;98870;;;;
2022/07/28 05:33:04;;;;;;;2.6;8.3;;;;;;;18.5;100;98870;;;;
2022/07/28 05:43:04;;;;;;;2.6;8.3;;;;;;;18.6;100;98870;;;;
2022/07/28 05:54:04;;;;;;;2.3;5.7;;;;;;;19.3;100;98880;;;;
2022/07/28 06:04:04;;;;;;;2.3;5.7;;;;;;;19.4;100;98890;;;;
2022/07/28 06:14:04;;;;;;;2.3;5.7;;;;;;;19.6;100;98890;;;;
2022/07/28 06:25:04;;;;;;;1.9;5.6;;;;;;;19.9;100;98900;;;;
2022/07/28 06:36:04;;;;;;;1.9;5.6;;;;;;;19.9;100;98910;;;;
2022/07/28 06:46:04;;;;;;;1.9;5.6;;;;;;;20.3;100;98910;;;;
2022/07/28 06:57:05;;;;;;;2.6;8.2;;;;;;;20.4;100;98910;;;;
2022/07/28 07:07:04;;;;;;;2.6;8.2;;;;;;;20.6;100;98910;;;;
2022/07/28 07:18:04;;;;;;;2.6;8.2;;;;;;;21.3;100;98900;;;;
2022/07/28 07:28:04;;;;;;;3.2;8.8;;;;;;;20.8;100;98900;;;;
2022/07/28 07:38:04;;;;;;;3.2;8.8;;;;;;;20.5;100;98890;;;;
2022/07/28 07:49:04;;;;;;;3.5;6.9;;;;;;;20.6;100;98890;;;;
2022/07/28 07:59:04;;;;;;;3.5;6.9;;;;;;;19.9;100;98890;;;;
2022/07/28 08:10:04;;;;;;;3.5;6.9;;;;;;;20;100;98890;;;;
2022/07/28 08:20:04;;;;;;;2.5;6.7;;;;;;;20.8;100;98890;;;;
2022/07/28 08:31:04;;;;;;;2.5;6.7;;;;;;;21.3;100;98890;;;;
2022/07/28 08:41:04;;;;;;;2.5;6.7;;;;;;;21;100;98890;;;;
2022/07/28 08:51:04;;;;;;;3.2;8.9;;;;;;;21.5;100;98880;;;;
2022/07/28 09:02:04;;;;;;;3.2;8.9;;;;;;;21.7;100;98880;;;;
2022/07/28 09:12:04;;;;;;;3.2;8.9;;;;;;;22.2;100;98870;;;;
2022/07/28 09:22:04;;;;;;;3.1;7.2;;;;;;;22.1;100;98870;;;;
2022/07/28 09:33:04;;;;;;;3.1;7.2;;;;;;;22.3;100;98890;;;;
2022/07/28 09:44:05;;;;;;;3.1;7.2;;;;;;;22.7;100;98890;;;;
2022/07/28 09:55:04;;;;;;;3;6.6;;;;;;;22.8;100;98880;;;;
2022/07/28 10:05:04;;;;;;;3;6.6;;;;;;;23.1;100;98880;;;;
2022/07/28 10:16:09;;;;;;;3;6.6;;;;;;;22.4;100;98880;;;;
2022/07/28 10:26:04;;;;;;;2.2;5.4;;;;;;;23.1;100;98880;;;;
2022/07/28 10:36:04;;;;;;;2.2;5.4;;;;;;;23;100;98870;;;;
2022/07/28 10:47:04;;;;;;;2.2;5.4;;;;;;;24.3;99.7;98870;;;;
2022/07/28 10:58:04;;;;;;;2.1;4.9;;;;;;;24;97.8;98860;;;;
2022/07/28 11:08:04;;;;;;;2.1;4.9;;;;;;;24.1;95.9;98860;;;;
2022/07/28 11:19:05;;;;;;;2.1;4.9;;;;;;;24;97.6;98840;;;;
2022/07/28 11:29:05;;;;;;;2.1;5.9;;;;;;;24;97.6;98830;;;;
2022/07/28 11:39:04;;;;;;;2.1;5.9;;;;;;;24.4;94.6;98830;;;;
2022/07/28 11:49:04;;;;;;;2.1;5.9;;;;;;;24.5;90.9;98830;;;;
2022/07/28 12:00:05;;;;;;;2.3;5.3;;;;;;;24.1;92.8;98820;;;;
2022/07/28 12:11:04;;;;;;;2.3;5.3;;;;;;;24.8;96.2;98810;;;;
2022/07/28 12:22:04;;;;;;;2;5.2;;;;;;;24.7;91.3;98810;;;;
2022/07/28 12:33:04;;;;;;;2;5.2;;;;;;;25.5;88.6;98810;;;;
2022/07/28 12:43:04;;;;;;;2;5.2;;;;;;;24.8;91.1;98800;;;;
2022/07/28 12:54:04;;;;;;;1.7;4.3;;;;;;;24.9;86.6;98800;;;;
2022/07/28 13:04:04;;;;;;;1.7;4.3;;;;;;;25;92.2;98790;;;;
2022/07/28 13:15:05;;;;;;;1.7;4.3;;;;;;;26;86.6;98810;;;;
2022/07/28 13:25:04;;;;;;;2.2;4.4;;;;;;;25.9;84.5;98790;;;;
2022/07/28 13:35:04;;;;;;;2.2;4.4;;;;;;;25.9;89.2;98790;;;;
2022/07/28 13:45:04;;;;;;;2.2;4.4;;;;;;;25.8;88.4;98780;;;;
2022/07/28 13:56:04;;;;;;;2.5;5.8;;;;;;;26;83.9;98790;;;;
2022/07/28 14:06:04;;;;;;;2.5;5.8;;;;;;;26.8;86;98780;;;;
2022/07/28 14:16:04;;;;;;;2.5;5.8;;;;;;;27.3;85.2;98770;;;;
2022/07/28 14:27:04;;;;;;;2;5.3;;;;;;;27.3;78.6;98770;;;;
2022/07/28 14:38:07;;;;;;;2;5.3;;;;;;;27.2;82.2;98760;;;;
2022/07/28 14:48:04;;;;;;;2;5.3;;;;;;;28;73.3;98750;;;;
2022/07/28 14:59:04;;;;;;;3.2;6.2;;;;;;;28.1;73.4;98750;;;;
2022/07/28 15:09:05;;;;;;;3.2;6.2;;;;;;;27.2;74.4;98740;;;;
2022/07/28 15:19:05;;;;;;;3.2;6.2;;;;;;;29;69.2;98740;;;;
2022/07/28 15:30:04;;;;;;;3.3;5.5;;;;;;;31.3;61.5;98740;;;;
2022/07/28 15:40:04;;;;;;;3.3;5.5;;;;;;;33;52.9;98740;;;;
2022/07/28 15:51:04;;;;;;;2.3;5.8;;;;;;;32.9;52;98740;;;;
2022/07/28 16:01:04;;;;;;;2.3;5.8;;;;;;;35;47.7;98740;;;;
2022/07/28 16:12:04;;;;;;;2.3;5.8;;;;;;;33.5;49.7;98730;;;;
2022/07/28 16:23:04;;;;;;;1.8;4.4;;;;;;;30;58.7;98730;;;;
2022/07/28 16:33:04;;;;;;;1.8;4.4;;;;;;;29.2;61.6;98720;;;;
2022/07/28 16:43:05;;;;;;;1.8;4.4;;;;;;;29.7;59.4;98720;;;;
2022/07/28 16:54:04;;;;;;;4;7.1;;;;;;;30;59.2;98720;;;;
2022/07/28 17:04:04;;;;;;;4;7.1;;;;;;;29.7;59.1;98720;;;;
2022/07/28 17:15:04;;;;;;;4;7.1;;;;;;;29.7;60.6;98730;;;;
2022/07/28 17:26:04;;;;;;;10.6;16.1;;;;;;;28.4;62.5;98730;;;;
2022/07/28 17:36:04;;;;;;;10.6;16.1;;;;;;;25.8;74;98720;;;;
2022/07/28 17:46:04;;;;;;;10.6;16.1;;;;;;;25.1;76.8;98740;;;;
2022/07/28 17:56:04;;;;;;;6.1;9.7;;;;;;;24.3;79.5;98740;;;;
2022/07/28 18:07:04;;;;;;;6.1;9.7;;;;;;;23.4;84;98740;;;;
2022/07/28 18:18:04;;;;;;;6.1;9.7;;;;;;;22.6;88.4;98730;;;;
2022/07/28 18:28:04;;;;;;;3.4;7.8;;;;;;;21.9;91.3;98740;;;;
2022/07/28 18:39:04;;;;;;;3.4;7.8;;;;;;;21.2;97.1;98740;;;;
2022/07/28 18:50:04;;;;;;;3.4;7.8;;;;;;;20.6;100;98760;;;;
2022/07/28 19:00:04;;;;;;;2.9;5.8;;;;;;;20.2;100;98760;;;;
2022/07/28 19:10:04;;;;;;;2.9;5.8;;;;;;;20;100;98770;;;;
2022/07/28 19:20:06;;;;;;;2.9;5.8;;;;;;;19.5;100;98760;;;;
2022/07/28 19:31:04;;;;;;;3.9;7.6;;;;;;;19.3;100;98770;;;;
2022/07/28 19:42:07;;;;;;;3.9;7.6;;;;;;;19;100;98770;;;;
2022/07/28 19:53:04;;;;;;;4.8;9.4;;;;;;;18.8;100;98770;;;;
2022/07/28 20:04:04;;;;;;;4.8;9.4;;;;;;;18.6;100;98790;;;;
2022/07/28 20:14:04;;;;;;;4.8;9.4;;;;;;;18.5;100;98780;;;;
2022/07/28 20:25:06;;;;;;;4;12.6;;;;;;;18.4;100;98790;;;;
2022/07/28 20:35:04;;;;;;;4;12.6;;;;;;;18.2;100;98780;;;;
2022/07/28 20:46:04;;;;;;;4;12.6;;;;;;;18;100;98790;;;;
2022/07/28 20:57:04;;;;;;;3.8;7.2;;;;;;;18;100;98790;;;;
2022/07/28 21:07:04;;;;;;;3.8;7.2;;;;;;;17.9;100;98790;;;;
2022/07/28 21:18:04;;;;;;;3.8;7.2;;;;;;;17.7;100;98800;;;;
2022/07/28 21:39:04;;;;;;;3.5;6.2;;;;;;;17.5;100;98810;;;;
2022/07/28 21:49:04;;;;;;;3.5;6.2;;;;;;;17.3;100;98820;;;;
2022/07/28 21:59:04;;;;;;;4;7.4;;;;;;;17.2;100;98820;;;;
2022/07/28 22:10:04;;;;;;;4;7.4;;;;;;;17.1;100;98830;;;;
2022/07/28 22:21:04;;;;;;;3.8;6.3;;;;;;;17;100;98830;;;;
2022/07/28 22:31:05;;;;;;;3.8;6.3;;;;;;;16.8;100;98820;;;;
2022/07/28 22:42:04;;;;;;;3.8;6.3;;;;;;;16.7;100;98820;;;;
2022/07/28 22:52:04;;;;;;;4.3;6.8;;;;;;;16.5;100;98830;;;;
2022/07/28 23:03:04;;;;;;;4.3;6.8;;;;;;;16.2;100;98840;;;;
2022/07/28 23:14:04;;;;;;;4.3;6.8;;;;;;;16.3;100;98830;;;;
2022/07/28 23:24:04;;;;;;;4.4;8;;;;;;;16.3;100;98830;;;;
2022/07/28 23:35:04;;;;;;;4.4;8;;;;;;;16.3;100;98820;;;;
2022/07/28 23:46:04;;;;;;;4.4;8;;;;;;;16.4;100;98830;;;;
2022/07/28 23:57:04;;;;;;;4.7;7.4;;;;;;;16.5;100;98830;;;;
